sensor_id;sensor_type;location;lat;lon;timestamp;pressure;altitude;pressure_sealevel;temperature;humidity
48614;BME280;34408;51.426;5.444;2023-04-15T00:01:47;100696.50;;;12.41;50.31
48614;BME280;34408;51.426;5.444;2023-04-15T00:04:16;100687.25;;;12.37;50.33
48614;BME280;34408;51.426;5.444;2023-04-15T00:06:49;100688.88;;;12.38;50.32
48614;BME280;34408;51.426;5.444;2023-04-15T00:09:18;100682.69;;;12.37;50.46
48614;BME280;34408;51.426;5.444;2023-04-15T00:11:46;100685.63;;;12.36;50.56
48614;BME280;34408;51.426;5.444;2023-04-15T00:14:14;100680.47;;;12.34;50.36
48614;BME280;34408;51.426;5.444;2023-04-15T00:16:42;100684.22;;;12.33;50.29
48614;BME280;34408;51.426;5.444;2023-04-15T00:19:09;100681.75;;;12.32;50.19
48614;BME280;34408;51.426;5.444;2023-04-15T00:21:39;100678.25;;;12.31;50.03
48614;BME280;34408;51.426;5.444;2023-04-15T00:24:06;100683.63;;;12.31;50.07
48614;BME280;34408;51.426;5.444;2023-04-15T00:26:34;100673.09;;;12.30;50.41
48614;BME280;34408;51.426;5.444;2023-04-15T00:29:02;100676.84;;;12.29;50.16
48614;BME280;34408;51.426;5.444;2023-04-15T00:31:30;100679.78;;;12.27;49.97
48614;BME280;34408;51.426;5.444;2023-04-15T00:33:58;100673.56;;;12.27;49.95
48614;BME280;34408;51.426;5.444;2023-04-15T00:36:26;100681.66;;;12.27;50.36
48614;BME280;34408;51.426;5.444;2023-04-15T00:38:55;100681.06;;;12.25;50.31
48614;BME280;34408;51.426;5.444;2023-04-15T00:41:23;100675.91;;;12.23;50.30
48614;BME280;34408;51.426;5.444;2023-04-15T00:43:51;100689.38;;;12.23;49.91
48614;BME280;34408;51.426;5.444;2023-04-15T00:46:19;100675.56;;;12.20;49.94
48614;BME280;34408;51.426;5.444;2023-04-15T00:48:47;100681.78;;;12.20;50.33
48614;BME280;34408;51.426;5.444;2023-04-15T00:51:15;100683.66;;;12.20;50.59
48614;BME280;34408;51.426;5.444;2023-04-15T00:53:43;100690.31;;;12.17;50.58
48614;BME280;34408;51.426;5.444;2023-04-15T00:56:12;100690.56;;;12.16;50.35
48614;BME280;34408;51.426;5.444;2023-04-15T00:58:40;100679.72;;;12.11;50.58
48614;BME280;34408;51.426;5.444;2023-04-15T01:01:09;100686.22;;;12.15;50.55
48614;BME280;34408;51.426;5.444;2023-04-15T01:03:36;100682.97;;;12.13;50.33
48614;BME280;34408;51.426;5.444;2023-04-15T01:06:05;100688.59;;;12.11;50.49
48614;BME280;34408;51.426;5.444;2023-04-15T01:08:33;100694.22;;;12.10;50.64
48614;BME280;34408;51.426;5.444;2023-04-15T01:11:01;100681.00;;;12.08;50.34
48614;BME280;34408;51.426;5.444;2023-04-15T01:13:32;100666.25;;;11.99;50.35
48614;BME280;34408;51.426;5.444;2023-04-15T01:16:00;100684.97;;;12.05;50.85
48614;BME280;34408;51.426;5.444;2023-04-15T01:18:29;100687.09;;;12.03;50.73
48614;BME280;34408;51.426;5.444;2023-04-15T01:20:56;100686.28;;;12.03;50.55
48614;BME280;34408;51.426;5.444;2023-04-15T01:23:24;100685.69;;;12.01;50.67
48614;BME280;34408;51.426;5.444;2023-04-15T01:25:55;100684.88;;;12.00;50.69
48614;BME280;34408;51.426;5.444;2023-04-15T01:28:24;100677.84;;;11.99;50.63
48614;BME280;34408;51.426;5.444;2023-04-15T01:31:05;100679.72;;;11.99;50.52
48614;BME280;34408;51.426;5.444;2023-04-15T01:33:33;100679.94;;;11.97;50.67
48614;BME280;34408;51.426;5.444;2023-04-15T01:36:02;100679.59;;;11.94;50.88
48614;BME280;34408;51.426;5.444;2023-04-15T01:38:31;100677.97;;;11.93;50.58
48614;BME280;34408;51.426;5.444;2023-04-15T01:41:00;100684.41;;;11.92;50.62
48614;BME280;34408;51.426;5.444;2023-04-15T01:43:28;100680.53;;;11.88;50.51
48614;BME280;34408;51.426;5.444;2023-04-15T01:45:56;100682.19;;;11.89;50.78
48614;BME280;34408;51.426;5.444;2023-04-15T01:48:24;100677.84;;;11.88;50.67
48614;BME280;34408;51.426;5.444;2023-04-15T01:50:53;100683.22;;;11.88;50.66
48614;BME280;34408;51.426;5.444;2023-04-15T01:53:23;100688.03;;;11.86;50.80
48614;BME280;34408;51.426;5.444;2023-04-15T01:55:51;100685.34;;;11.86;50.86
48614;BME280;34408;51.426;5.444;2023-04-15T01:58:20;100680.19;;;11.84;50.66
48614;BME280;34408;51.426;5.444;2023-04-15T02:00:48;100683.69;;;11.85;50.77
48614;BME280;34408;51.426;5.444;2023-04-15T02:03:16;100682.88;;;11.84;50.62
48614;BME280;34408;51.426;5.444;2023-04-15T02:05:44;100680.41;;;11.83;50.70
48614;BME280;34408;51.426;5.444;2023-04-15T02:08:12;100681.47;;;11.82;50.86
48614;BME280;34408;51.426;5.444;2023-04-15T02:10:40;100680.66;;;11.81;50.77
48614;BME280;34408;51.426;5.444;2023-04-15T02:13:07;100680.88;;;11.80;50.65
48614;BME280;34408;51.426;5.444;2023-04-15T02:15:37;100687.91;;;11.81;50.57
48614;BME280;34408;51.426;5.444;2023-04-15T02:18:05;100687.31;;;11.79;50.91
48614;BME280;34408;51.426;5.444;2023-04-15T02:20:33;100693.75;;;11.78;50.70
48614;BME280;34408;51.426;5.444;2023-04-15T02:23:01;100697.47;;;11.77;50.91
48614;BME280;34408;51.426;5.444;2023-04-15T02:25:32;100696.66;;;11.76;50.66
48614;BME280;34408;51.426;5.444;2023-04-15T02:28:00;100691.50;;;11.74;50.73
48614;BME280;34408;51.426;5.444;2023-04-15T02:30:28;100697.94;;;11.73;50.76
48614;BME280;34408;51.426;5.444;2023-04-15T02:32:57;100683.19;;;11.64;50.83
48614;BME280;34408;51.426;5.444;2023-04-15T02:35:25;100710.00;;;11.71;50.97
48614;BME280;34408;51.426;5.444;2023-04-15T02:37:53;100711.88;;;11.70;50.91
48614;BME280;34408;51.426;5.444;2023-04-15T02:40:20;100711.50;;;11.67;50.81
48614;BME280;34408;51.426;5.444;2023-04-15T02:42:48;100718.53;;;11.68;51.20
48614;BME280;34408;51.426;5.444;2023-04-15T02:45:16;100717.13;;;11.65;51.04
48614;BME280;34408;51.426;5.444;2023-04-15T02:47:49;100711.75;;;11.65;51.15
48614;BME280;34408;51.426;5.444;2023-04-15T02:50:18;100715.72;;;11.63;50.97
48614;BME280;34408;51.426;5.444;2023-04-15T02:52:46;100722.97;;;11.62;50.94
48614;BME280;34408;51.426;5.444;2023-04-15T02:55:14;100725.09;;;11.60;50.93
48614;BME280;34408;51.426;5.444;2023-04-15T02:57:43;100723.44;;;11.59;51.17
48614;BME280;34408;51.426;5.444;2023-04-15T03:00:12;100724.72;;;11.57;51.08
48614;BME280;34408;51.426;5.444;2023-04-15T03:02:40;100724.94;;;11.55;51.20
48614;BME280;34408;51.426;5.444;2023-04-15T03:05:11;100720.03;;;11.52;51.03
48614;BME280;34408;51.426;5.444;2023-04-15T03:07:40;100723.53;;;11.53;51.08
48614;BME280;34408;51.426;5.444;2023-04-15T03:10:08;100721.91;;;11.52;51.01
48614;BME280;34408;51.426;5.444;2023-04-15T03:12:37;100722.13;;;11.50;51.30
48614;BME280;34408;51.426;5.444;2023-04-15T03:15:07;100719.44;;;11.50;51.30
48614;BME280;34408;51.426;5.444;2023-04-15T03:17:35;100724.22;;;11.48;50.94
48614;BME280;34408;51.426;5.444;2023-04-15T03:20:04;100722.81;;;11.46;51.27
48614;BME280;34408;51.426;5.444;2023-04-15T03:22:32;100723.66;;;11.46;51.35
48614;BME280;34408;51.426;5.444;2023-04-15T03:25:02;100724.09;;;11.43;51.43
48614;BME280;34408;51.426;5.444;2023-04-15T03:27:29;100737.56;;;11.43;51.34
48614;BME280;34408;51.426;5.444;2023-04-15T03:29:57;100734.06;;;11.43;51.23
48614;BME280;34408;51.426;5.444;2023-04-15T03:32:25;100733.47;;;11.40;51.18
48614;BME280;34408;51.426;5.444;2023-04-15T03:34:53;100735.56;;;11.38;51.42
48614;BME280;34408;51.426;5.444;2023-04-15T03:37:20;100743.63;;;11.38;51.13
48614;BME280;34408;51.426;5.444;2023-04-15T03:39:48;100741.16;;;11.37;51.41
48614;BME280;34408;51.426;5.444;2023-04-15T03:42:17;100740.00;;;11.33;51.40
48614;BME280;34408;51.426;5.444;2023-04-15T03:44:45;100737.88;;;11.35;51.32
48614;BME280;34408;51.426;5.444;2023-04-15T03:47:13;100742.44;;;11.34;51.27
48614;BME280;34408;51.426;5.444;2023-04-15T03:49:41;100742.44;;;11.34;51.20
48614;BME280;34408;51.426;5.444;2023-04-15T03:52:08;100753.44;;;11.33;51.41
48614;BME280;34408;51.426;5.444;2023-04-15T03:54:36;100759.88;;;11.32;51.38
48614;BME280;34408;51.426;5.444;2023-04-15T03:57:04;100756.34;;;11.31;51.25
48614;BME280;34408;51.426;5.444;2023-04-15T03:59:33;100762.78;;;11.30;51.46
48614;BME280;34408;51.426;5.444;2023-04-15T04:02:01;100756.59;;;11.30;51.31
48614;BME280;34408;51.426;5.444;2023-04-15T04:04:28;100764.88;;;11.28;51.32
48614;BME280;34408;51.426;5.444;2023-04-15T04:06:57;100765.94;;;11.27;51.40
48614;BME280;34408;51.426;5.444;2023-04-15T04:09:25;100764.28;;;11.26;51.33
48614;BME280;34408;51.426;5.444;2023-04-15T04:11:53;100772.38;;;11.26;51.32
48614;BME280;34408;51.426;5.444;2023-04-15T04:14:21;100776.34;;;11.24;51.42
48614;BME280;34408;51.426;5.444;2023-04-15T04:16:56;100780.31;;;11.21;51.35
48614;BME280;34408;51.426;5.444;2023-04-15T04:19:23;100782.16;;;11.21;51.48
48614;BME280;34408;51.426;5.444;2023-04-15T04:21:51;100781.56;;;11.19;51.29
48614;BME280;34408;51.426;5.444;2023-04-15T04:24:19;100786.94;;;11.19;51.67
48614;BME280;34408;51.426;5.444;2023-04-15T04:26:47;100799.81;;;11.17;51.65
48614;BME280;34408;51.426;5.444;2023-04-15T04:29:14;100801.69;;;11.16;51.74
48614;BME280;34408;51.426;5.444;2023-04-15T04:31:42;100797.34;;;11.15;51.79
48614;BME280;34408;51.426;5.444;2023-04-15T04:34:11;100807.50;;;11.13;51.74
48614;BME280;34408;51.426;5.444;2023-04-15T04:36:39;100813.13;;;11.12;51.69
48614;BME280;34408;51.426;5.444;2023-04-15T04:39:07;100815.22;;;11.09;51.73
48614;BME280;34408;51.426;5.444;2023-04-15T04:41:34;100814.63;;;11.07;51.77
48614;BME280;34408;51.426;5.444;2023-04-15T04:44:02;100821.03;;;11.06;51.98
48614;BME280;34408;51.426;5.444;2023-04-15T04:46:30;100822.91;;;11.06;51.94
48614;BME280;34408;51.426;5.444;2023-04-15T04:48:58;100822.31;;;11.04;51.86
48614;BME280;34408;51.426;5.444;2023-04-15T04:51:27;100825.22;;;11.02;51.98
48614;BME280;34408;51.426;5.444;2023-04-15T04:53:55;100840.53;;;11.02;52.03
48614;BME280;34408;51.426;5.444;2023-04-15T04:56:23;100834.56;;;11.00;52.11
48614;BME280;34408;51.426;5.444;2023-04-15T04:58:51;100838.31;;;10.99;52.13
48614;BME280;34408;51.426;5.444;2023-04-15T05:01:18;100842.03;;;10.98;52.16
48614;BME280;34408;51.426;5.444;2023-04-15T05:03:46;100843.91;;;10.97;52.13
48614;BME280;34408;51.426;5.444;2023-04-15T05:06:14;100842.47;;;10.95;52.26
48614;BME280;34408;51.426;5.444;2023-04-15T05:08:43;100849.72;;;10.94;52.28
48614;BME280;34408;51.426;5.444;2023-04-15T05:11:12;100853.47;;;10.93;52.28
48614;BME280;34408;51.426;5.444;2023-04-15T05:13:40;100862.56;;;10.92;52.23
48614;BME280;34408;51.426;5.444;2023-04-15T05:16:07;100860.94;;;10.91;52.37
48614;BME280;34408;51.426;5.444;2023-04-15T05:18:35;100861.16;;;10.90;52.35
48614;BME280;34408;51.426;5.444;2023-04-15T05:21:03;100866.75;;;10.88;52.37
48614;BME280;34408;51.426;5.444;2023-04-15T05:23:32;100869.44;;;10.88;52.37
48614;BME280;34408;51.426;5.444;2023-04-15T05:26:01;100873.19;;;10.87;52.44
48614;BME280;34408;51.426;5.444;2023-04-15T05:28:29;100876.09;;;10.86;52.50
48614;BME280;34408;51.426;5.444;2023-04-15T05:30:57;100879.81;;;10.85;52.52
48614;BME280;34408;51.426;5.444;2023-04-15T05:33:25;100887.06;;;10.84;52.53
48614;BME280;34408;51.426;5.444;2023-04-15T05:35:53;100892.66;;;10.83;52.67
48614;BME280;34408;51.426;5.444;2023-04-15T05:38:21;100888.94;;;10.84;52.67
48614;BME280;34408;51.426;5.444;2023-04-15T05:40:48;100898.03;;;10.83;52.62
48614;BME280;34408;51.426;5.444;2023-04-15T05:43:20;100909.03;;;10.81;52.91
48614;BME280;34408;51.426;5.444;2023-04-15T05:45:48;100913.34;;;10.82;52.77
48614;BME280;34408;51.426;5.444;2023-04-15T05:48:16;100918.13;;;10.80;52.84
48614;BME280;34408;51.426;5.444;2023-04-15T05:50:43;100926.19;;;10.80;52.78
48614;BME280;34408;51.426;5.444;2023-04-15T05:53:11;100928.88;;;10.80;53.37
48614;BME280;34408;51.426;5.444;2023-04-15T05:55:39;100926.19;;;10.80;52.90
48614;BME280;34408;51.426;5.444;2023-04-15T05:58:07;100933.66;;;10.78;52.92
48614;BME280;34408;51.426;5.444;2023-04-15T06:00:36;100937.44;;;10.70;53.42
48614;BME280;34408;51.426;5.444;2023-04-15T06:03:04;100937.94;;;10.61;54.29
48614;BME280;34408;51.426;5.444;2023-04-15T06:05:32;100937.56;;;10.57;54.69
48614;BME280;34408;51.426;5.444;2023-04-15T06:07:59;100939.38;;;10.63;54.59
48614;BME280;34408;51.426;5.444;2023-04-15T06:10:28;100946.78;;;10.68;54.15
48614;BME280;34408;51.426;5.444;2023-04-15T06:12:56;100952.53;;;10.71;54.04
48614;BME280;34408;51.426;5.444;2023-04-15T06:15:24;100957.47;;;10.74;53.93
48614;BME280;34408;51.426;5.444;2023-04-15T06:17:53;100958.06;;;10.76;53.97
48614;BME280;34408;51.426;5.444;2023-04-15T06:20:21;100965.09;;;10.77;53.93
48614;BME280;34408;51.426;5.444;2023-04-15T06:22:49;100964.88;;;10.79;53.98
48614;BME280;34408;51.426;5.444;2023-04-15T06:25:17;100966.53;;;10.80;53.89
48614;BME280;34408;51.426;5.444;2023-04-15T06:27:45;100977.06;;;10.82;53.99
48614;BME280;34408;51.426;5.444;2023-04-15T06:30:13;100977.88;;;10.82;53.76
48614;BME280;34408;51.426;5.444;2023-04-15T06:32:41;100989.22;;;10.84;54.12
48614;BME280;34408;51.426;5.444;2023-04-15T06:35:10;100990.28;;;10.83;54.15
48614;BME280;34408;51.426;5.444;2023-04-15T06:37:38;100993.78;;;10.84;54.27
48614;BME280;34408;51.426;5.444;2023-04-15T06:40:07;101002.69;;;10.84;54.31
48614;BME280;34408;51.426;5.444;2023-04-15T06:42:35;101003.50;;;10.85;54.43
48614;BME280;34408;51.426;5.444;2023-04-15T06:45:04;101007.84;;;10.86;54.23
48614;BME280;34408;51.426;5.444;2023-04-15T06:47:32;101015.69;;;10.87;54.37
48614;BME280;34408;51.426;5.444;2023-04-15T06:50:00;101019.19;;;10.88;54.75
48614;BME280;34408;51.426;5.444;2023-04-15T06:52:30;101017.09;;;10.90;54.34
48614;BME280;34408;51.426;5.444;2023-04-15T06:54:58;101010.13;;;10.82;54.32
48614;BME280;34408;51.426;5.444;2023-04-15T06:57:26;101024.50;;;10.94;54.41
48614;BME280;34408;51.426;5.444;2023-04-15T06:59:54;101032.38;;;10.96;54.33
48614;BME280;34408;51.426;5.444;2023-04-15T07:02:22;101041.84;;;10.98;54.30
48614;BME280;34408;51.426;5.444;2023-04-15T07:04:50;101037.91;;;11.01;54.12
48614;BME280;34408;51.426;5.444;2023-04-15T07:07:18;101038.50;;;11.03;54.28
48614;BME280;34408;51.426;5.444;2023-04-15T07:09:47;101047.63;;;11.02;54.39
48614;BME280;34408;51.426;5.444;2023-04-15T07:12:15;101054.44;;;11.04;54.21
48614;BME280;34408;51.426;5.444;2023-04-15T07:14:43;101056.91;;;11.06;54.35
48614;BME280;34408;51.426;5.444;2023-04-15T07:17:11;101064.97;;;11.06;54.31
48614;BME280;34408;51.426;5.444;2023-04-15T07:19:39;101061.22;;;11.07;54.33
48614;BME280;34408;51.426;5.444;2023-04-15T07:22:07;101067.44;;;11.07;54.52
48614;BME280;34408;51.426;5.444;2023-04-15T07:24:35;101069.31;;;11.07;54.65
48614;BME280;34408;51.426;5.444;2023-04-15T07:27:04;101070.72;;;11.09;54.48
48614;BME280;34408;51.426;5.444;2023-04-15T07:29:31;101080.22;;;11.12;54.69
48614;BME280;34408;51.426;5.444;2023-04-15T07:31:59;101078.97;;;11.15;54.54
48614;BME280;34408;51.426;5.444;2023-04-15T07:34:27;101084.94;;;11.17;54.91
48614;BME280;34408;51.426;5.444;2023-04-15T07:36:57;101087.41;;;11.18;54.75
48614;BME280;34408;51.426;5.444;2023-04-15T07:39:25;101086.81;;;11.16;54.74
48614;BME280;34408;51.426;5.444;2023-04-15T07:41:54;101094.44;;;11.19;54.75
48614;BME280;34408;51.426;5.444;2023-04-15T07:44:23;101095.25;;;11.20;54.73
48614;BME280;34408;51.426;5.444;2023-04-15T07:46:51;101104.97;;;11.21;55.24
48614;BME280;34408;51.426;5.444;2023-04-15T07:49:19;101102.28;;;11.21;55.18
48614;BME280;34408;51.426;5.444;2023-04-15T07:51:47;101102.06;;;11.22;55.03
48614;BME280;34408;51.426;5.444;2023-04-15T07:54:15;101109.31;;;11.22;55.09
48614;BME280;34408;51.426;5.444;2023-04-15T07:56:43;101116.34;;;11.23;55.10
48614;BME280;34408;51.426;5.444;2023-04-15T07:59:10;101118.00;;;11.24;55.17
48614;BME280;34408;51.426;5.444;2023-04-15T08:01:39;101120.91;;;11.22;55.26
48614;BME280;34408;51.426;5.444;2023-04-15T08:04:07;101121.50;;;11.24;55.26
48614;BME280;34408;51.426;5.444;2023-04-15T08:06:36;101132.06;;;11.26;55.19
48614;BME280;34408;51.426;5.444;2023-04-15T08:09:05;101130.19;;;11.26;55.24
48614;BME280;34408;51.426;5.444;2023-04-15T08:11:33;101130.19;;;11.26;55.19
48614;BME280;34408;51.426;5.444;2023-04-15T08:14:01;101126.44;;;11.27;55.24
48614;BME280;34408;51.426;5.444;2023-04-15T08:16:29;101140.94;;;11.26;55.34
48614;BME280;34408;51.426;5.444;2023-04-15T08:18:59;101137.59;;;11.31;55.33
48614;BME280;34408;51.426;5.444;2023-04-15T08:21:27;101144.13;;;11.41;54.97
48614;BME280;34408;51.426;5.444;2023-04-15T08:23:56;101154.78;;;11.30;55.35
48614;BME280;34408;51.426;5.444;2023-04-15T08:26:24;101161.00;;;11.30;55.42
48614;BME280;34408;51.426;5.444;2023-04-15T08:28:52;101154.97;;;11.35;55.41
48614;BME280;34408;51.426;5.444;2023-04-15T08:31:20;101167.16;;;11.37;55.54
48614;BME280;34408;51.426;5.444;2023-04-15T08:33:47;101159.91;;;11.38;55.78
48614;BME280;34408;51.426;5.444;2023-04-15T08:36:18;101162.59;;;11.38;55.77
48614;BME280;34408;51.426;5.444;2023-04-15T08:38:46;101165.06;;;11.39;55.95
48614;BME280;34408;51.426;5.444;2023-04-15T08:41:20;101171.06;;;11.41;55.88
48614;BME280;34408;51.426;5.444;2023-04-15T08:43:52;101173.75;;;11.41;56.17
48614;BME280;34408;51.426;5.444;2023-04-15T08:46:21;101180.78;;;11.43;56.10
48614;BME280;34408;51.426;5.444;2023-04-15T08:48:49;101180.34;;;11.46;56.27
48614;BME280;34408;51.426;5.444;2023-04-15T08:51:19;101179.06;;;11.48;56.39
48614;BME280;34408;51.426;5.444;2023-04-15T08:53:50;101190.88;;;11.47;56.31
48614;BME280;34408;51.426;5.444;2023-04-15T08:56:23;101196.66;;;11.51;56.13
48614;BME280;34408;51.426;5.444;2023-04-15T08:58:52;101200.50;;;11.61;55.93
48614;BME280;34408;51.426;5.444;2023-04-15T09:01:20;101210.88;;;11.58;56.09
48614;BME280;34408;51.426;5.444;2023-04-15T09:03:48;101210.88;;;11.58;56.03
48614;BME280;34408;51.426;5.444;2023-04-15T09:06:19;101217.09;;;11.58;55.95
48614;BME280;34408;51.426;5.444;2023-04-15T09:08:47;101228.06;;;11.57;55.45
48614;BME280;34408;51.426;5.444;2023-04-15T09:11:15;101230.97;;;11.55;55.44
48614;BME280;34408;51.426;5.444;2023-04-15T09:13:45;101234.72;;;11.54;55.12
48614;BME280;34408;51.426;5.444;2023-04-15T09:16:13;101235.75;;;11.53;55.32
48614;BME280;34408;51.426;5.444;2023-04-15T09:18:42;101241.16;;;11.53;54.85
48614;BME280;34408;51.426;5.444;2023-04-15T09:21:11;101236.97;;;11.57;54.98
48614;BME280;34408;51.426;5.444;2023-04-15T09:23:53;101250.44;;;11.57;54.76
48614;BME280;34408;51.426;5.444;2023-04-15T09:26:30;101253.50;;;11.61;54.69
48614;BME280;34408;51.426;5.444;2023-04-15T09:29:03;101264.06;;;11.62;54.60
48614;BME280;34408;51.426;5.444;2023-04-15T09:31:31;101267.56;;;11.63;54.34
48614;BME280;34408;51.426;5.444;2023-04-15T09:33:59;101268.19;;;11.65;54.26
48614;BME280;34408;51.426;5.444;2023-04-15T09:36:27;101267.13;;;11.66;54.36
48614;BME280;34408;51.426;5.444;2023-04-15T09:38:58;101272.31;;;11.67;54.34
48614;BME280;34408;51.426;5.444;2023-04-15T09:41:26;101270.66;;;11.66;53.92
48614;BME280;34408;51.426;5.444;2023-04-15T09:43:54;101274.56;;;11.70;53.80
48614;BME280;34408;51.426;5.444;2023-04-15T09:46:39;101274.34;;;11.72;53.49
48614;BME280;34408;51.426;5.444;2023-04-15T09:49:08;101269.78;;;11.72;53.38
48614;BME280;34408;51.426;5.444;2023-04-15T09:51:36;101274.09;;;11.80;54.08
48614;BME280;34408;51.426;5.444;2023-04-15T09:54:05;101272.69;;;11.78;53.75
48614;BME280;34408;51.426;5.444;2023-04-15T09:56:33;101271.00;;;11.77;53.72
48614;BME280;34408;51.426;5.444;2023-04-15T09:59:03;101281.38;;;11.80;53.67
48614;BME280;34408;51.426;5.444;2023-04-15T10:01:31;101281.16;;;11.81;53.50
48614;BME280;34408;51.426;5.444;2023-04-15T10:04:02;101288.13;;;11.89;52.91
48614;BME280;34408;51.426;5.444;2023-04-15T10:06:32;101291.03;;;11.87;53.38
48614;BME280;34408;51.426;5.444;2023-04-15T10:09:01;101286.25;;;11.89;53.80
48614;BME280;34408;51.426;5.444;2023-04-15T10:11:30;101274.72;;;11.82;53.79
48614;BME280;34408;51.426;5.444;2023-04-15T10:13:59;101296.38;;;11.94;53.86
48614;BME280;34408;51.426;5.444;2023-04-15T10:16:28;101296.59;;;11.92;53.59
48614;BME280;34408;51.426;5.444;2023-04-15T10:19:00;101302.16;;;11.97;53.84
48614;BME280;34408;51.426;5.444;2023-04-15T10:21:29;101293.84;;;11.99;53.53
48614;BME280;34408;51.426;5.444;2023-04-15T10:23:57;101292.56;;;12.01;53.91
48614;BME280;34408;51.426;5.444;2023-04-15T10:26:26;101296.25;;;12.07;53.72
48614;BME280;34408;51.426;5.444;2023-04-15T10:28:56;101303.91;;;12.10;53.58
48614;BME280;34408;51.426;5.444;2023-04-15T10:31:25;101292.97;;;12.05;52.93
48614;BME280;34408;51.426;5.444;2023-04-15T10:33:53;101312.81;;;12.29;50.41
48614;BME280;34408;51.426;5.444;2023-04-15T10:36:22;101305.84;;;12.21;52.02
48614;BME280;34408;51.426;5.444;2023-04-15T10:38:50;101305.03;;;12.21;52.17
48614;BME280;34408;51.426;5.444;2023-04-15T10:41:19;101308.31;;;12.23;51.62
48614;BME280;34408;51.426;5.444;2023-04-15T10:43:49;101309.97;;;12.24;52.05
48614;BME280;34408;51.426;5.444;2023-04-15T10:46:21;101321.94;;;12.28;52.36
48614;BME280;34408;51.426;5.444;2023-04-15T10:48:52;101316.56;;;12.28;51.92
48614;BME280;34408;51.426;5.444;2023-04-15T10:51:29;101313.03;;;12.27;51.07
48614;BME280;34408;51.426;5.444;2023-04-15T10:53:58;101314.69;;;12.28;50.49
48614;BME280;34408;51.426;5.444;2023-04-15T10:56:27;101318.81;;;12.31;51.29
48614;BME280;34408;51.426;5.444;2023-04-15T10:58:58;101315.00;;;12.38;50.85
48614;BME280;34408;51.426;5.444;2023-04-15T11:01:52;101320.78;;;12.42;50.63
48614;BME280;34408;51.426;5.444;2023-04-15T11:07:40;101322.59;;;12.48;50.52
48614;BME280;34408;51.426;5.444;2023-04-15T11:13:20;101315.56;;;13.02;46.86
48614;BME280;34408;51.426;5.444;2023-04-15T11:15:49;101313.84;;;12.89;45.76
48614;BME280;34408;51.426;5.444;2023-04-15T11:18:20;101327.41;;;12.83;46.36
48614;BME280;34408;51.426;5.444;2023-04-15T11:20:49;101332.81;;;13.01;46.09
48614;BME280;34408;51.426;5.444;2023-04-15T11:23:18;101337.44;;;12.94;44.98
48614;BME280;34408;51.426;5.444;2023-04-15T11:25:47;101334.81;;;12.87;45.76
48614;BME280;34408;51.426;5.444;2023-04-15T11:28:15;101336.16;;;12.60;47.53
48614;BME280;34408;51.426;5.444;2023-04-15T11:30:42;101332.47;;;12.54;47.58
48614;BME280;34408;51.426;5.444;2023-04-15T11:33:11;101339.97;;;12.52;48.35
48614;BME280;34408;51.426;5.444;2023-04-15T11:35:41;101339.75;;;12.54;48.51
48614;BME280;34408;51.426;5.444;2023-04-15T11:38:10;101338.03;;;12.59;48.34
48614;BME280;34408;51.426;5.444;2023-04-15T11:40:39;101345.91;;;12.61;47.93
48614;BME280;34408;51.426;5.444;2023-04-15T11:43:12;101344.03;;;12.61;47.66
48614;BME280;34408;51.426;5.444;2023-04-15T11:45:49;101347.31;;;12.63;47.92
48614;BME280;34408;51.426;5.444;2023-04-15T11:48:19;101366.56;;;12.67;48.42
48614;BME280;34408;51.426;5.444;2023-04-15T11:50:54;101358.88;;;12.70;48.32
48614;BME280;34408;51.426;5.444;2023-04-15T11:53:22;101358.19;;;12.75;48.72
48614;BME280;34408;51.426;5.444;2023-04-15T11:55:52;101360.66;;;12.77;48.53
48614;BME280;34408;51.426;5.444;2023-04-15T11:58:21;101357.81;;;12.71;48.11
48614;BME280;34408;51.426;5.444;2023-04-15T12:00:51;101358.66;;;12.72;47.85
48614;BME280;34408;51.426;5.444;2023-04-15T12:03:24;101367.50;;;12.79;48.64
48614;BME280;34408;51.426;5.444;2023-04-15T12:06:18;101370.78;;;12.81;48.75
48614;BME280;34408;51.426;5.444;2023-04-15T12:08:51;101368.69;;;12.83;49.37
48614;BME280;34408;51.426;5.444;2023-04-15T12:11:20;101366.59;;;12.85;49.57
48614;BME280;34408;51.426;5.444;2023-04-15T12:13:49;101375.06;;;12.89;49.38
48614;BME280;34408;51.426;5.444;2023-04-15T12:16:17;101379.78;;;12.93;49.63
48614;BME280;34408;51.426;5.444;2023-04-15T12:18:45;101384.13;;;12.94;49.47
48614;BME280;34408;51.426;5.444;2023-04-15T12:21:13;101378.28;;;12.97;49.49
48614;BME280;34408;51.426;5.444;2023-04-15T12:23:48;101387.81;;;13.00;49.81
48614;BME280;34408;51.426;5.444;2023-04-15T12:26:16;101383.00;;;13.02;49.86
48614;BME280;34408;51.426;5.444;2023-04-15T12:28:44;101395.16;;;13.11;49.31
48614;BME280;34408;51.426;5.444;2023-04-15T12:31:13;101382.50;;;13.30;49.59
48614;BME280;34408;51.426;5.444;2023-04-15T12:33:41;101394.78;;;13.44;48.70
48614;BME280;34408;51.426;5.444;2023-04-15T12:36:08;101404.75;;;13.62;47.44
48614;BME280;34408;51.426;5.444;2023-04-15T12:38:36;101415.59;;;13.74;47.22
48614;BME280;34408;51.426;5.444;2023-04-15T12:41:05;101405.75;;;13.79;46.35
48614;BME280;34408;51.426;5.444;2023-04-15T12:43:33;101421.13;;;13.79;46.29
48614;BME280;34408;51.426;5.444;2023-04-15T12:46:01;101411.63;;;13.76;46.87
48614;BME280;34408;51.426;5.444;2023-04-15T12:48:30;101420.63;;;13.70;47.17
48614;BME280;34408;51.426;5.444;2023-04-15T12:50:58;101411.56;;;13.64;47.70
48614;BME280;34408;51.426;5.444;2023-04-15T12:53:26;101429.72;;;13.57;47.12
48614;BME280;34408;51.426;5.444;2023-04-15T12:55:54;101415.94;;;13.47;47.49
48614;BME280;34408;51.426;5.444;2023-04-15T12:58:23;101434.47;;;13.44;47.71
48614;BME280;34408;51.426;5.444;2023-04-15T13:00:51;101441.75;;;13.43;47.93
48614;BME280;34408;51.426;5.444;2023-04-15T13:03:18;101447.38;;;13.42;47.94
48614;BME280;34408;51.426;5.444;2023-04-15T13:05:46;101440.31;;;13.41;48.17